Авиационная погода в Бургасе

СКИДКИ НА СМАРТФОНЫ!

Регион: 
Погода METAR: 
LBBG 091530Z 07015KT 9999 FEW045 33/10 Q1012 NOSIG
Время наблюдения
2022-08-09T15:30:00Z
Температура C
33.0
Точка росы
10.0
Направление ветра
70
Скорость ветра (узлы)
15
Метео видимость
6.21
Облачность
FEW
Нижняя граница облачности (футы)
4500
Явления погоды
Условия полета
VFR
FEW – незначительная облачность;

Скидки на навигаторы!